KCNY/CNY METAR and TAF weather

Enter ICAO airport designator
Station Type Date Time Source
KCNY METAR 2021/09/25 11:53 UTC NOAA

KCNY 251153Z AUTO 00000KT 10SM CLR 09/M04 A3015 RMK AO2 SLP167 T00891039 10167 20078 53008


Station Type Date Time Source
KCNY Decoded METAR 2021/09/25 11:53 UTC NOAA

MOAB CANYONLANDS FIELD, UT, United States (KCNY) 38-46N 109-45W 1390M
Sep 25, 2021 - 07:53 AM EDT / 2021.09.25 1153 UTC
Wind: Calm:0
Visibility: 10 mile(s):0
Sky conditions: clear
Temperature: 48.0 F (8.9 C)
Dew Point: 25.0 F (-3.9 C)
Relative Humidity: 40%
Pressure (altimeter): 30.15 in. Hg (1020 hPa)
Pressure tendency: 0.02 inches (0.8 hPa) higher than three hours ago
ob: KCNY 251153Z AUTO 00000KT 10SM CLR 09/M04 A3015 RMK AO2 SLP167 T00891039 10167 20078 53008
cycle: 12

Station Type Date Time Source
KCNY TAF 2021/09/25 12:28 UTC NOAA

TAF KCNY 251126Z 2512/2612 VRB03KT P6SM SKC
FM252000 26008KT P6SM SKC
FM260200 20005KT P6SM SKC
FM260600 14006KT P6SM SKC

Example: see airport list